createdAt,value
2018-12-09T00:00:33.029Z,33.37
2018-12-09T00:03:04.121Z,34.17
2018-12-09T00:05:35.161Z,30.30
2018-12-09T00:08:06.131Z,29.87
2018-12-09T00:10:35.205Z,33.03
2018-12-09T00:13:05.061Z,32.53
2018-12-09T00:15:36.580Z,35.03
2018-12-09T00:18:05.609Z,31.90
2018-12-09T00:20:34.693Z,36.37
2018-12-09T00:23:03.953Z,30.10
2018-12-09T00:25:33.010Z,28.97
2018-12-09T00:28:02.109Z,29.20
2018-12-09T00:30:31.142Z,35.40
2018-12-09T00:33:00.232Z,38.03
2018-12-09T00:35:29.284Z,40.70
2018-12-09T00:37:58.443Z,40.27
2018-12-09T00:40:27.428Z,30.73
2018-12-09T00:42:56.487Z,31.30
2018-12-09T00:45:25.649Z,38.07
2018-12-09T00:47:54.775Z,37.53
2018-12-09T00:50:23.812Z,41.50
2018-12-09T00:52:52.841Z,28.70
2018-12-09T00:55:21.869Z,41.77
2018-12-09T00:57:50.975Z,31.40
2018-12-09T01:00:19.997Z,25.97
2018-12-09T01:02:49.081Z,28.23
2018-12-09T01:05:18.225Z,40.80
2018-12-09T01:07:47.283Z,42.77
2018-12-09T01:10:16.408Z,38.83
2018-12-09T01:12:45.482Z,33.87
2018-12-09T01:15:14.580Z,32.43
2018-12-09T01:17:43.549Z,28.37
2018-12-09T01:20:12.629Z,28.87
2018-12-09T01:22:41.786Z,37.73
2018-12-09T01:25:10.921Z,34.23
2018-12-09T01:27:40.062Z,31.83
2018-12-09T01:30:10.330Z,28.97
2018-12-09T01:32:39.661Z,25.17
2018-12-09T01:35:08.682Z,24.73
2018-12-09T01:37:38.050Z,24.63
2018-12-09T01:40:07.282Z,33.30
2018-12-09T01:42:36.288Z,30.50
2018-12-09T01:45:05.521Z,33.13
2018-12-09T01:47:34.593Z,24.33
2018-12-09T01:50:03.956Z,20.27
2018-12-09T01:52:32.970Z,22.57
2018-12-09T01:55:02.122Z,22.20
2018-12-09T01:57:31.341Z,25.57
2018-12-09T02:00:00.336Z,29.73
2018-12-09T02:02:29.332Z,24.30
2018-12-09T02:04:58.397Z,22.20
2018-12-09T02:07:27.442Z,27.47
2018-12-09T02:09:56.431Z,23.37
2018-12-09T02:12:25.504Z,21.63
2018-12-09T02:14:54.492Z,25.47
2018-12-09T02:17:23.550Z,26.73
2018-12-09T02:19:53.076Z,28.80
2018-12-09T02:22:22.050Z,30.50
2018-12-09T02:24:51.037Z,29.97
2018-12-09T02:27:20.165Z,21.77
2018-12-09T02:29:49.166Z,24.50
2018-12-09T02:32:18.236Z,28.63
2018-12-09T02:34:52.507Z,21.77
2018-12-09T02:37:21.702Z,23.43
2018-12-09T02:39:50.774Z,20.60
2018-12-09T02:42:19.988Z,20.00
2018-12-09T02:44:49.102Z,18.43
2018-12-09T02:47:18.321Z,21.83
2018-12-09T02:49:47.359Z,15.97
2018-12-09T02:52:16.377Z,14.63
2018-12-09T02:54:45.346Z,20.83
2018-12-09T02:57:14.449Z,22.13
2018-12-09T02:59:43.454Z,18.73
2018-12-09T03:02:12.848Z,18.73
2018-12-09T03:04:42.281Z,20.13
2018-12-09T03:07:11.314Z,27.20
2018-12-09T03:09:41.413Z,22.70
2018-12-09T03:12:10.758Z,22.17
2018-12-09T03:14:39.830Z,17.07
2018-12-09T03:17:08.935Z,16.50
2018-12-09T03:19:38.346Z,17.23
2018-12-09T03:22:07.349Z,17.57
2018-12-09T03:24:36.344Z,19.07
2018-12-09T03:27:05.378Z,18.07
2018-12-09T03:29:34.357Z,13.30
2018-12-09T03:32:03.370Z,21.20
2018-12-09T03:34:32.875Z,14.60
2018-12-09T03:37:01.939Z,15.67
2018-12-09T03:39:31.014Z,19.73
2018-12-09T03:42:00.047Z,17.83
2018-12-09T03:44:29.089Z,17.70
2018-12-09T03:46:58.191Z,18.60
2018-12-09T03:49:27.251Z,23.03
2018-12-09T03:51:56.305Z,14.73
2018-12-09T03:54:25.320Z,15.93
2018-12-09T03:56:54.730Z,19.20
2018-12-09T03:59:23.793Z,18.03
2018-12-09T04:01:52.873Z,18.13
2018-12-09T04:04:21.927Z,21.97
2018-12-09T04:06:50.898Z,17.40
2018-12-09T04:09:20.071Z,14.60
2018-12-09T04:11:49.093Z,16.27
2018-12-09T04:14:18.131Z,17.57
2018-12-09T04:16:47.494Z,19.80
2018-12-09T04:19:16.764Z,16.50
2018-12-09T04:21:45.757Z,14.90
2018-12-09T04:24:14.756Z,15.93
2018-12-09T04:26:43.798Z,14.27
2018-12-09T04:29:12.831Z,16.47
2018-12-09T04:31:42.091Z,16.10
2018-12-09T04:34:11.115Z,19.17
2018-12-09T04:36:41.306Z,15.50
2018-12-09T04:39:10.426Z,14.07
2018-12-09T04:41:39.914Z,14.07
2018-12-09T04:44:09.060Z,14.47
2018-12-09T04:46:38.038Z,13.57
2018-12-09T04:49:07.252Z,18.17
2018-12-09T04:51:47.707Z,15.33
2018-12-09T04:54:16.935Z,18.13
2018-12-09T04:56:45.913Z,15.50
2018-12-09T04:59:18.726Z,15.33
2018-12-09T05:01:48.297Z,13.30
2018-12-09T05:04:17.294Z,16.67
2018-12-09T05:06:46.414Z,15.53
2018-12-09T05:09:15.396Z,14.53
2018-12-09T05:11:44.380Z,14.87
2018-12-09T05:14:13.508Z,13.30
2018-12-09T05:16:42.547Z,14.37
2018-12-09T05:19:11.591Z,15.90
2018-12-09T05:21:40.596Z,14.63
2018-12-09T05:24:09.961Z,22.80
2018-12-09T05:26:38.917Z,19.20
2018-12-09T05:29:08.330Z,16.27
2018-12-09T05:31:37.425Z,24.87
2018-12-09T05:34:06.518Z,15.77
2018-12-09T05:36:35.850Z,19.80
2018-12-09T05:39:06.113Z,14.23
2018-12-09T05:41:35.188Z,19.77
2018-12-09T05:44:04.272Z,17.63
2018-12-09T05:46:33.649Z,21.03
2018-12-09T05:49:02.634Z,21.53
2018-12-09T05:51:31.732Z,19.13
2018-12-09T05:54:00.769Z,22.53
2018-12-09T05:56:29.732Z,20.70
2018-12-09T05:58:58.717Z,21.37
2018-12-09T06:01:27.756Z,27.87
2018-12-09T06:03:56.725Z,40.20
2018-12-09T06:06:25.844Z,34.60
2018-12-09T06:08:54.875Z,20.77
2018-12-09T06:11:24.047Z,25.33
2018-12-09T06:13:53.126Z,25.33
2018-12-09T06:16:22.133Z,26.00
2018-12-09T06:18:51.144Z,28.33
2018-12-09T06:21:20.464Z,25.80
2018-12-09T06:23:49.445Z,40.07
2018-12-09T06:26:18.446Z,34.97
2018-12-09T06:28:47.566Z,27.70
2018-12-09T06:31:16.634Z,28.17
2018-12-09T06:33:45.788Z,23.93
2018-12-09T06:36:14.785Z,24.87
2018-12-09T06:38:43.786Z,23.43
2018-12-09T06:41:12.765Z,27.17
2018-12-09T06:43:42.254Z,23.53
2018-12-09T06:46:11.286Z,33.27
2018-12-09T06:48:40.309Z,28.00
2018-12-09T06:51:09.378Z,27.53
2018-12-09T06:53:38.418Z,27.90
2018-12-09T06:56:07.680Z,29.53
2018-12-09T06:58:36.696Z,28.97
2018-12-09T07:01:05.717Z,24.23
2018-12-09T07:03:34.722Z,22.40
2018-12-09T07:06:03.850Z,23.13
2018-12-09T07:08:33.099Z,19.73
2018-12-09T07:11:02.087Z,19.90
2018-12-09T07:13:31.376Z,21.50
2018-12-09T07:16:00.392Z,18.77
2018-12-09T07:18:29.565Z,16.90
2018-12-09T07:20:58.648Z,19.30
2018-12-09T07:23:27.674Z,21.70
2018-12-09T07:25:56.637Z,15.40
2018-12-09T07:28:25.740Z,19.70
2018-12-09T07:30:54.886Z,24.30
2018-12-09T07:33:23.890Z,19.50
2018-12-09T07:35:53.024Z,16.80
2018-12-09T07:38:22.124Z,14.67
2018-12-09T07:40:51.128Z,16.03
2018-12-09T07:43:20.569Z,21.57
2018-12-09T07:45:49.631Z,22.17
2018-12-09T07:48:18.806Z,21.77
2018-12-09T07:50:47.837Z,23.93
2018-12-09T07:53:16.813Z,19.40
2018-12-09T07:55:45.802Z,24.80
2018-12-09T07:58:14.803Z,20.30
2018-12-09T08:00:43.825Z,23.43
2018-12-09T08:03:12.895Z,25.70
2018-12-09T08:05:42.065Z,18.63
2018-12-09T08:08:11.264Z,26.70
2018-12-09T08:10:40.261Z,26.97
2018-12-09T08:13:09.349Z,31.60
2018-12-09T08:15:38.432Z,23.03
2018-12-09T08:18:07.565Z,25.67
2018-12-09T08:20:36.665Z,32.03
2018-12-09T08:23:05.748Z,29.63
2018-12-09T08:25:34.714Z,35.13
2018-12-09T08:28:03.801Z,49.50
2018-12-09T08:30:32.829Z,33.27
2018-12-09T08:33:01.984Z,28.43
2018-12-09T08:35:32.242Z,24.43
2018-12-09T08:38:01.356Z,24.87
2018-12-09T08:40:30.513Z,24.60
2018-12-09T08:42:59.557Z,22.23
2018-12-09T08:45:28.560Z,30.67
2018-12-09T08:47:57.618Z,25.47
2018-12-09T08:50:26.650Z,25.97
2018-12-09T08:52:55.683Z,26.40
2018-12-09T08:55:24.758Z,22.87
2018-12-09T08:57:55.044Z,27.27
2018-12-09T09:00:24.046Z,26.53
2018-12-09T09:02:53.057Z,21.83
2018-12-09T09:05:22.201Z,23.03
2018-12-09T09:07:51.297Z,24.07
2018-12-09T09:10:22.037Z,24.67
2018-12-09T09:12:51.354Z,25.57
2018-12-09T09:15:20.411Z,31.40
2018-12-09T09:17:49.609Z,43.47
2018-12-09T09:20:18.731Z,63.37
2018-12-09T09:22:47.793Z,38.03
2018-12-09T09:25:16.978Z,29.17
2018-12-09T09:27:46.015Z,26.07
2018-12-09T09:30:15.039Z,22.00
2018-12-09T09:32:44.094Z,28.33
2018-12-09T09:35:13.110Z,25.23
2018-12-09T09:37:42.159Z,22.47
2018-12-09T09:40:11.165Z,21.30
2018-12-09T09:42:40.193Z,19.47
2018-12-09T09:45:09.268Z,19.83
2018-12-09T09:47:38.353Z,23.53
2018-12-09T09:50:07.394Z,22.63
2018-12-09T09:52:36.461Z,20.67
2018-12-09T09:55:05.898Z,25.20
2018-12-09T09:57:35.144Z,21.87
2018-12-09T10:00:04.196Z,20.40
2018-12-09T10:02:33.182Z,21.63
2018-12-09T10:05:02.231Z,27.13
2018-12-09T10:07:31.389Z,24.70
2018-12-09T10:10:00.568Z,19.57
2018-12-09T10:12:29.629Z,21.43
2018-12-09T10:14:58.837Z,30.10
2018-12-09T10:17:27.857Z,26.43
2018-12-09T10:19:56.929Z,28.23
2018-12-09T10:22:26.143Z,31.40
2018-12-09T10:24:55.149Z,34.57
2018-12-09T10:27:24.334Z,27.17
2018-12-09T10:29:53.385Z,23.27
2018-12-09T10:32:22.438Z,30.47
2018-12-09T10:34:51.511Z,34.80
2018-12-09T10:37:20.621Z,44.57
2018-12-09T10:39:49.721Z,25.07
2018-12-09T10:42:18.746Z,25.97
2018-12-09T10:44:47.883Z,26.20
2018-12-09T10:47:16.902Z,29.27
2018-12-09T10:49:46.109Z,24.70
2018-12-09T10:52:15.149Z,32.03
2018-12-09T10:54:44.298Z,36.53
2018-12-09T10:57:13.361Z,46.03
2018-12-09T10:59:42.441Z,26.77
2018-12-09T11:02:16.749Z,28.37
2018-12-09T11:04:45.910Z,28.40
2018-12-09T11:07:14.956Z,32.73
2018-12-09T11:09:44.059Z,35.60
2018-12-09T11:12:14.438Z,31.70
2018-12-09T11:14:43.618Z,34.40
2018-12-09T11:17:13.830Z,34.03
2018-12-09T11:19:42.848Z,32.70
2018-12-09T11:22:11.964Z,32.53
2018-12-09T11:24:41.026Z,36.37
2018-12-09T11:27:10.019Z,48.93
2018-12-09T11:29:39.201Z,46.90
2018-12-09T11:32:08.310Z,43.60
2018-12-09T11:34:37.505Z,39.20
2018-12-09T11:37:06.616Z,35.63
2018-12-09T11:39:35.738Z,34.33
2018-12-09T11:42:04.955Z,27.70
2018-12-09T11:44:34.502Z,30.47
2018-12-09T11:47:03.626Z,29.17
2018-12-09T11:49:32.885Z,30.67
2018-12-09T11:52:02.007Z,28.50
2018-12-09T11:54:31.241Z,22.90
2018-12-09T11:57:00.283Z,21.53
2018-12-09T11:59:29.395Z,23.57
2018-12-09T12:01:58.499Z,23.23
2018-12-09T12:04:27.545Z,29.57
2018-12-09T12:06:57.503Z,27.00
2018-12-09T12:09:26.826Z,29.40
2018-12-09T12:11:55.970Z,33.40
2018-12-09T12:14:25.053Z,33.43
2018-12-09T12:16:54.280Z,30.80
2018-12-09T12:19:23.288Z,31.93
2018-12-09T12:21:52.316Z,34.63
2018-12-09T12:24:21.415Z,31.67
2018-12-09T12:26:50.550Z,31.87
2018-12-09T12:29:19.641Z,28.87
2018-12-09T12:31:48.769Z,25.60
2018-12-09T12:34:17.932Z,27.47
2018-12-09T12:36:46.922Z,33.07
2018-12-09T12:39:16.017Z,23.10
2018-12-09T12:41:45.089Z,25.97
2018-12-09T12:44:14.171Z,24.70
2018-12-09T12:46:43.321Z,25.07
2018-12-09T12:49:12.561Z,25.00
2018-12-09T12:51:41.604Z,23.93
2018-12-09T12:54:11.299Z,24.00
2018-12-09T12:56:40.359Z,24.07
2018-12-09T12:59:09.421Z,23.67
2018-12-09T13:01:38.452Z,24.73
2018-12-09T13:04:07.482Z,21.77
2018-12-09T13:06:36.598Z,24.77
2018-12-09T13:09:08.887Z,23.87
2018-12-09T13:11:39.455Z,22.97
2018-12-09T13:14:09.443Z,29.50
2018-12-09T13:16:39.019Z,22.70
2018-12-09T13:19:08.278Z,22.20
2018-12-09T13:21:37.774Z,20.47
2018-12-09T13:24:07.937Z,17.97
2018-12-09T13:26:37.904Z,21.93
2018-12-09T13:29:08.148Z,21.77
2018-12-09T13:31:37.319Z,22.80
2018-12-09T13:34:06.367Z,25.00
2018-12-09T13:36:35.835Z,22.37
2018-12-09T13:39:05.830Z,23.80
2018-12-09T13:41:35.878Z,23.77
2018-12-09T13:44:04.975Z,31.67
2018-12-09T13:46:34.184Z,21.67
2018-12-09T13:49:03.218Z,25.17
2018-12-09T13:51:32.248Z,23.17
2018-12-09T13:54:01.308Z,22.10
2018-12-09T13:56:30.326Z,22.17
2018-12-09T13:58:59.358Z,22.93
2018-12-09T14:01:28.374Z,20.87
2018-12-09T14:03:57.398Z,22.13
2018-12-09T14:06:26.495Z,20.30
2018-12-09T14:08:55.630Z,22.07
2018-12-09T14:11:24.833Z,25.07
2018-12-09T14:13:53.922Z,27.00
2018-12-09T14:16:24.091Z,37.67
2018-12-09T14:18:53.096Z,24.63
2018-12-09T14:21:22.122Z,26.90
2018-12-09T14:23:51.323Z,23.47
2018-12-09T14:26:20.517Z,20.97
2018-12-09T14:28:49.759Z,20.50
2018-12-09T14:31:18.929Z,24.07
2018-12-09T14:33:47.982Z,23.00
2018-12-09T14:36:17.185Z,24.33
2018-12-09T14:38:46.548Z,24.70
2018-12-09T14:41:15.742Z,25.00
2018-12-09T14:43:44.773Z,25.70
2018-12-09T14:46:13.996Z,28.83
2018-12-09T14:48:43.117Z,27.67
2018-12-09T14:51:12.369Z,27.70
2018-12-09T14:53:41.510Z,29.73
2018-12-09T14:56:10.639Z,29.90
2018-12-09T14:58:39.709Z,30.43
2018-12-09T15:01:08.870Z,33.33
2018-12-09T15:03:37.945Z,39.37
2018-12-09T15:06:06.929Z,34.27
2018-12-09T15:08:36.883Z,35.90
2018-12-09T15:11:06.104Z,36.63
2018-12-09T15:13:35.097Z,33.07
2018-12-09T15:16:04.330Z,37.47
2018-12-09T15:18:34.403Z,36.17
2018-12-09T15:21:03.421Z,33.93
2018-12-09T15:23:32.597Z,46.83
2018-12-09T15:26:01.681Z,37.90
2018-12-09T15:28:30.863Z,37.57
2018-12-09T15:30:59.960Z,42.30
2018-12-09T15:33:29.104Z,39.87
2018-12-09T15:35:58.117Z,43.77
2018-12-09T15:38:27.142Z,35.83
2018-12-09T15:40:56.271Z,34.00
2018-12-09T15:43:25.378Z,37.53
2018-12-09T15:45:54.722Z,38.97
2018-12-09T15:48:24.933Z,34.07
2018-12-09T15:50:54.218Z,39.20
2018-12-09T15:53:23.252Z,52.53
2018-12-09T15:55:52.324Z,71.97
2018-12-09T15:58:21.413Z,63.10
2018-12-09T16:00:56.510Z,54.30
2018-12-09T16:03:25.725Z,50.03
2018-12-09T16:05:54.803Z,49.10
2018-12-09T16:08:23.968Z,35.43
2018-12-09T16:10:52.985Z,41.40
2018-12-09T16:13:22.085Z,31.90
2018-12-09T16:15:51.130Z,34.87
2018-12-09T16:18:20.178Z,33.23
2018-12-09T16:20:49.204Z,33.60
2018-12-09T16:23:18.341Z,31.20
2018-12-09T16:25:49.532Z,38.23
2018-12-09T16:28:18.646Z,37.97
2018-12-09T16:30:47.800Z,41.03
2018-12-09T16:33:17.198Z,80.73
2018-12-09T16:35:47.660Z,94.80
2018-12-09T16:38:17.283Z,86.80
2018-12-09T16:40:46.816Z,68.87
2018-12-09T16:43:16.359Z,65.60
2018-12-09T16:45:46.057Z,63.83
2018-12-09T16:48:17.075Z,51.13
2018-12-09T16:50:50.655Z,41.00
2018-12-09T16:53:20.144Z,42.93
2018-12-09T16:55:49.237Z,40.77
2018-12-09T16:58:18.421Z,35.03
2018-12-09T17:00:48.103Z,34.60
2018-12-09T17:03:17.315Z,26.83
2018-12-09T17:05:46.562Z,30.20
2018-12-09T17:08:15.576Z,31.97
2018-12-09T17:10:45.164Z,27.23
2018-12-09T17:13:14.475Z,31.40
2018-12-09T17:15:43.914Z,28.13
2018-12-09T17:18:13.433Z,54.57
2018-12-09T17:20:42.982Z,61.27
2018-12-09T17:23:12.461Z,57.97
2018-12-09T17:25:41.789Z,53.83
2018-12-09T17:28:10.828Z,45.57
2018-12-09T17:30:40.067Z,39.63
2018-12-09T17:33:09.312Z,37.10
2018-12-09T17:35:38.495Z,34.83
2018-12-09T17:38:07.723Z,33.50
2018-12-09T17:40:36.751Z,47.73
2018-12-09T17:43:05.960Z,40.70
2018-12-09T17:45:35.102Z,40.43
2018-12-09T17:48:04.255Z,33.93
2018-12-09T17:50:33.358Z,51.97
2018-12-09T17:53:02.449Z,61.03
2018-12-09T17:55:31.488Z,70.00
2018-12-09T17:58:00.703Z,69.90
2018-12-09T18:00:29.725Z,54.67
2018-12-09T18:02:59.961Z,37.23
2018-12-09T18:07:55.035Z,35.30
2018-12-09T18:17:41.658Z,21.73
2018-12-09T18:25:02.279Z,50.13
2018-12-09T18:27:31.370Z,35.43
2018-12-09T18:30:00.461Z,28.13
2018-12-09T18:32:29.530Z,20.63
2018-12-09T18:34:58.623Z,22.23
2018-12-09T18:37:27.885Z,33.43
2018-12-09T18:39:57.111Z,58.07
2018-12-09T18:42:26.085Z,45.23
2018-12-09T18:44:55.186Z,38.43
2018-12-09T18:47:24.210Z,41.97
2018-12-09T18:49:53.380Z,30.57
2018-12-09T18:52:22.512Z,26.60
2018-12-09T18:54:51.678Z,29.20
2018-12-09T18:57:20.756Z,28.20
2018-12-09T18:59:49.906Z,26.37
2018-12-09T19:02:19.060Z,39.07
2018-12-09T19:04:48.089Z,25.73
2018-12-09T19:07:17.898Z,28.47
2018-12-09T19:09:47.085Z,31.53
2018-12-09T19:12:16.238Z,25.10
2018-12-09T19:14:45.396Z,34.20
2018-12-09T19:17:23.255Z,28.20
2018-12-09T19:19:52.294Z,34.90
2018-12-09T19:22:21.361Z,30.43
2018-12-09T19:24:50.382Z,26.10
2018-12-09T19:27:19.405Z,30.03
2018-12-09T19:29:48.589Z,29.77
2018-12-09T19:32:18.433Z,34.93
2018-12-09T19:34:47.643Z,34.50
2018-12-09T19:37:16.692Z,30.20
2018-12-09T19:39:45.823Z,36.50
2018-12-09T19:42:14.976Z,32.80
2018-12-09T19:44:44.171Z,34.87
2018-12-09T19:47:13.294Z,32.30
2018-12-09T19:49:42.544Z,27.13
2018-12-09T19:52:11.729Z,27.47
2018-12-09T19:54:40.782Z,28.07
2018-12-09T19:57:09.882Z,31.93
2018-12-09T19:59:38.906Z,33.67
2018-12-09T20:02:08.135Z,33.50
2018-12-09T20:04:37.199Z,34.80
2018-12-09T20:07:06.220Z,34.57
2018-12-09T20:09:35.309Z,38.23
2018-12-09T20:12:04.438Z,26.17
2018-12-09T20:14:33.650Z,29.40
2018-12-09T20:17:02.694Z,28.97
2018-12-09T20:19:31.978Z,26.70
2018-12-09T20:22:01.029Z,32.53
2018-12-09T20:24:30.858Z,33.77
2018-12-09T20:27:00.800Z,36.37
2018-12-09T20:29:29.832Z,37.07
2018-12-09T20:31:59.877Z,29.60
2018-12-09T20:34:28.983Z,33.30
2018-12-09T20:36:58.130Z,26.17
2018-12-09T20:39:27.262Z,34.30
2018-12-09T20:41:56.418Z,30.07
2018-12-09T20:44:25.460Z,34.33
2018-12-09T20:46:54.738Z,32.00
2018-12-09T20:49:23.810Z,40.97
2018-12-09T20:51:52.801Z,43.70
2018-12-09T20:54:21.881Z,36.77
2018-12-09T20:56:51.198Z,33.83
2018-12-09T20:59:20.269Z,36.03
2018-12-09T21:01:49.365Z,35.10
2018-12-09T21:04:18.477Z,38.87
2018-12-09T21:06:47.460Z,40.83
2018-12-09T21:09:16.506Z,39.80
2018-12-09T21:11:45.608Z,44.13
2018-12-09T21:14:14.993Z,40.80
2018-12-09T21:16:44.105Z,42.77
2018-12-09T21:19:13.188Z,40.60
2018-12-09T21:21:42.907Z,43.23
2018-12-09T21:24:11.959Z,51.17
2018-12-09T21:26:40.981Z,47.57
2018-12-09T21:29:10.110Z,39.60
2018-12-09T21:31:39.133Z,44.03
2018-12-09T21:34:08.294Z,48.97
2018-12-09T21:36:37.414Z,46.90
2018-12-09T21:39:07.595Z,43.57
2018-12-09T21:41:38.680Z,44.13
2018-12-09T21:44:07.734Z,53.33
2018-12-09T21:46:36.806Z,42.97
2018-12-09T21:49:05.900Z,47.47
2018-12-09T21:51:35.952Z,45.23
2018-12-09T21:54:05.070Z,37.53
2018-12-09T21:56:34.052Z,34.90
2018-12-09T21:59:03.090Z,38.53
2018-12-09T22:01:32.387Z,37.60
2018-12-09T22:04:01.614Z,39.40
2018-12-09T22:06:30.697Z,36.90
2018-12-09T22:08:59.824Z,33.60
2018-12-09T22:11:28.882Z,36.80
2018-12-09T22:13:57.892Z,39.70
2018-12-09T22:16:26.949Z,40.67
2018-12-09T22:18:56.059Z,36.63
2018-12-09T22:21:25.097Z,38.43
2018-12-09T22:23:54.166Z,34.87
2018-12-09T22:26:23.178Z,35.80
2018-12-09T22:28:52.207Z,39.17
2018-12-09T22:31:21.259Z,34.80
2018-12-09T22:33:50.334Z,37.00
2018-12-09T22:36:19.452Z,34.53
2018-12-09T22:38:49.470Z,35.30
2018-12-09T22:41:18.677Z,35.10
2018-12-09T22:43:47.802Z,34.50
2018-12-09T22:46:16.930Z,34.50
2018-12-09T22:48:46.014Z,37.30
2018-12-09T22:51:15.145Z,37.43
2018-12-09T22:53:44.266Z,38.67
2018-12-09T22:56:13.355Z,37.77
2018-12-09T22:58:42.416Z,43.40
2018-12-09T23:01:16.845Z,33.57
2018-12-09T23:03:46.102Z,37.33
2018-12-09T23:06:15.197Z,32.37
2018-12-09T23:08:44.331Z,33.70
2018-12-09T23:11:13.408Z,33.80
2018-12-09T23:13:42.489Z,40.73
2018-12-09T23:16:11.579Z,37.40
2018-12-09T23:18:40.801Z,32.87
2018-12-09T23:21:09.805Z,42.67
2018-12-09T23:23:38.938Z,35.23
2018-12-09T23:26:08.021Z,39.50
2018-12-09T23:28:37.130Z,37.43
2018-12-09T23:43:18.526Z,39.27
2018-12-09T23:45:47.117Z,42.60
2018-12-09T23:48:16.185Z,39.93
2018-12-09T23:50:45.293Z,51.60
2018-12-09T23:53:14.293Z,45.07
2018-12-09T23:55:43.281Z,43.30
2018-12-09T23:58:12.395Z,49.47
